createdAt,value
2022-09-01T00:00:29.088Z,0.88
2022-09-01T00:02:57.539Z,1.20
2022-09-01T00:05:25.667Z,0.80
2022-09-01T00:07:53.897Z,1.30
2022-09-01T00:10:22.242Z,1.20
2022-09-01T00:12:50.740Z,1.17
2022-09-01T00:15:18.909Z,1.05
2022-09-01T00:17:48.783Z,0.82
2022-09-01T00:20:20.692Z,0.70
2022-09-01T00:22:49.716Z,0.88
2022-09-01T00:25:20.404Z,0.85
2022-09-01T00:27:49.893Z,0.90
2022-09-01T00:30:18.291Z,1.00
2022-09-01T00:32:48.650Z,0.80
2022-09-01T00:35:17.121Z,0.90
2022-09-01T00:37:45.613Z,0.80
2022-09-01T00:40:15.218Z,1.02
2022-09-01T00:42:44.632Z,1.25
2022-09-01T00:45:13.619Z,1.05
2022-09-01T00:47:43.419Z,1.02
2022-09-01T00:50:15.671Z,0.90
2022-09-01T00:52:47.337Z,0.82
2022-09-01T00:55:19.968Z,0.90
2022-09-01T00:57:48.598Z,0.90
2022-09-01T01:00:21.584Z,0.82
2022-09-01T01:02:56.197Z,0.75
2022-09-01T01:05:31.063Z,0.90
2022-09-01T01:07:59.726Z,1.02
2022-09-01T01:10:29.591Z,0.98
2022-09-01T01:13:01.290Z,1.17
2022-09-01T01:15:30.468Z,0.90
2022-09-01T01:17:58.638Z,1.10
2022-09-01T01:20:50.305Z,1.08
2022-09-01T01:23:26.221Z,1.05
2022-09-01T01:25:58.988Z,1.05
2022-09-01T01:28:31.888Z,1.00
2022-09-01T01:31:02.532Z,1.00
2022-09-01T01:33:33.169Z,0.73
2022-09-01T01:36:01.937Z,0.73
2022-09-01T01:38:30.288Z,0.82
2022-09-01T01:41:00.117Z,0.90
2022-09-01T01:43:29.081Z,0.95
2022-09-01T01:46:02.547Z,0.80
2022-09-01T01:48:34.748Z,0.80
2022-09-01T01:51:04.582Z,1.27
2022-09-01T01:53:34.873Z,0.93
2022-09-01T01:56:06.266Z,1.15
2022-09-01T01:58:34.979Z,0.90
2022-09-01T02:01:03.737Z,0.80
2022-09-01T02:03:38.611Z,1.00
2022-09-01T02:06:09.866Z,1.00
2022-09-01T02:08:39.798Z,1.17
2022-09-01T02:11:09.623Z,0.63
2022-09-01T02:13:37.660Z,1.00
2022-09-01T02:16:13.080Z,0.80
2022-09-01T02:18:44.386Z,0.93
2022-09-01T02:21:18.550Z,0.50
2022-09-01T02:23:49.667Z,0.70
2022-09-01T02:26:22.927Z,1.13
2022-09-01T02:28:55.290Z,0.70
2022-09-01T02:31:24.958Z,0.80
2022-09-01T02:33:54.463Z,0.77
2022-09-01T02:36:25.381Z,0.70
2022-09-01T02:38:56.673Z,0.90
2022-09-01T02:41:27.262Z,0.93
2022-09-01T02:43:55.425Z,1.00
2022-09-01T02:46:24.623Z,1.13
2022-09-01T02:48:53.224Z,1.13
2022-09-01T02:51:25.686Z,0.80
2022-09-01T02:53:54.233Z,0.60
2022-09-01T02:56:25.247Z,0.60
2022-09-01T02:58:55.585Z,0.93
2022-09-01T03:01:25.835Z,1.15
2022-09-01T03:03:56.911Z,1.23
2022-09-01T03:06:26.102Z,1.50
2022-09-01T03:08:59.701Z,1.10
2022-09-01T03:11:29.546Z,0.90
2022-09-01T03:13:59.137Z,1.20
2022-09-01T03:16:27.351Z,0.90
2022-09-01T03:18:57.667Z,1.10
2022-09-01T03:21:25.717Z,1.02
2022-09-01T03:23:54.274Z,0.80
2022-09-01T03:26:22.994Z,1.77
2022-09-01T03:28:52.224Z,1.08
2022-09-01T03:31:22.143Z,1.25
2022-09-01T03:33:51.110Z,1.50
2022-09-01T03:36:20.222Z,1.55
2022-09-01T03:38:49.771Z,1.20
2022-09-01T03:41:21.634Z,1.20
2022-09-01T03:43:51.255Z,1.15
2022-09-01T03:46:21.777Z,1.50
2022-09-01T03:48:52.741Z,1.80
2022-09-01T03:51:22.181Z,1.17
2022-09-01T03:53:54.484Z,1.92
2022-09-01T03:56:24.704Z,1.90
2022-09-01T03:58:53.173Z,1.10
2022-09-01T04:01:23.812Z,1.57
2022-09-01T04:03:53.050Z,1.10
2022-09-01T04:06:24.262Z,1.33
2022-09-01T04:08:56.904Z,1.77
2022-09-01T04:11:25.411Z,1.23
2022-09-01T04:13:54.174Z,1.10
2022-09-01T04:16:43.207Z,1.42
2022-09-01T04:19:20.567Z,1.30
2022-09-01T04:21:51.213Z,1.10
2022-09-01T04:24:19.971Z,1.48
2022-09-01T04:26:49.749Z,0.93
2022-09-01T04:29:24.242Z,0.93
2022-09-01T04:31:53.871Z,1.27
2022-09-01T04:34:24.130Z,1.20
2022-09-01T04:36:56.864Z,1.40
2022-09-01T04:39:25.340Z,1.25
2022-09-01T04:41:54.200Z,1.30
2022-09-01T04:44:22.608Z,1.23
2022-09-01T04:46:51.028Z,0.90
2022-09-01T04:49:27.133Z,1.10
2022-09-01T04:51:55.406Z,0.80
2022-09-01T04:54:24.406Z,1.60
2022-09-01T04:56:57.087Z,0.95
2022-09-01T04:59:27.298Z,0.97
2022-09-01T05:01:57.605Z,1.20
2022-09-01T05:04:29.582Z,0.90
2022-09-01T05:07:01.273Z,1.90
2022-09-01T05:09:31.391Z,1.10
2022-09-01T05:12:01.718Z,0.90
2022-09-01T05:14:29.852Z,1.27
2022-09-01T05:16:59.496Z,1.42
2022-09-01T05:19:30.966Z,1.13
2022-09-01T05:21:59.906Z,0.82
2022-09-01T05:24:32.128Z,1.33
2022-09-01T05:27:00.674Z,1.92
2022-09-01T05:29:29.779Z,0.93
2022-09-01T05:31:58.777Z,1.33
2022-09-01T05:34:29.762Z,1.45
2022-09-01T05:37:01.899Z,1.80
2022-09-01T05:39:30.239Z,1.67
2022-09-01T05:41:59.945Z,1.20
2022-09-01T05:44:28.104Z,1.60
2022-09-01T05:46:59.704Z,1.55
2022-09-01T05:49:31.557Z,1.23
2022-09-01T05:51:59.760Z,2.10
2022-09-01T05:54:29.239Z,1.52
2022-09-01T05:57:12.707Z,1.58
2022-09-01T05:59:53.947Z,1.17
2022-09-01T06:02:23.111Z,1.30
2022-09-01T06:04:54.972Z,1.45
2022-09-01T06:07:25.374Z,1.13
2022-09-01T06:09:53.838Z,1.77
2022-09-01T06:12:23.860Z,1.90
2022-09-01T06:14:54.044Z,1.23
2022-09-01T06:17:25.820Z,2.47
2022-09-01T06:19:57.031Z,1.67
2022-09-01T06:22:26.905Z,1.48
2022-09-01T06:25:01.085Z,1.50
2022-09-01T06:27:30.731Z,1.30
2022-09-01T06:29:58.883Z,1.48
2022-09-01T06:32:27.302Z,1.77
2022-09-01T06:34:59.110Z,1.63
2022-09-01T06:37:28.917Z,1.40
2022-09-01T06:39:57.640Z,1.60
2022-09-01T06:42:26.169Z,1.35
2022-09-01T06:44:54.568Z,3.72
2022-09-01T06:47:22.764Z,1.20
2022-09-01T06:49:55.921Z,1.15
2022-09-01T06:52:28.186Z,1.40
2022-09-01T06:54:56.425Z,1.20
2022-09-01T07:00:18.796Z,1.88
2022-09-01T07:02:48.765Z,5.00
2022-09-01T07:08:10.708Z,6.13
2022-09-01T07:13:34.861Z,6.60
2022-09-01T07:19:00.063Z,8.40
2022-09-01T07:21:41.996Z,6.85
2022-09-01T07:24:21.633Z,7.03
2022-09-01T07:26:52.203Z,7.63
2022-09-01T07:29:22.814Z,9.02
2022-09-01T07:34:47.942Z,12.30
2022-09-01T07:43:16.232Z,15.15
2022-09-01T07:45:58.291Z,22.83
2022-09-01T07:51:36.916Z,56.97
2022-09-01T07:54:06.310Z,59.63
2022-09-01T07:56:40.263Z,103.80
2022-09-01T07:59:12.729Z,18.48
2022-09-01T08:01:44.029Z,18.85
2022-09-01T08:04:12.183Z,20.35
2022-09-01T08:06:42.573Z,21.45
2022-09-01T08:09:25.328Z,21.75
2022-09-01T08:12:02.650Z,20.98
2022-09-01T08:14:35.085Z,21.38
2022-09-01T08:17:34.331Z,20.60
2022-09-01T08:19:53.574Z,21.48
2022-09-01T08:22:24.203Z,21.23
2022-09-01T08:24:52.690Z,20.92
2022-09-01T08:27:22.437Z,21.52
2022-09-01T08:29:50.573Z,20.08
2022-09-01T08:32:20.593Z,19.55
2022-09-01T08:34:48.714Z,18.60
2022-09-01T08:37:16.854Z,20.77
2022-09-01T08:39:48.468Z,20.60
2022-09-01T08:42:32.898Z,18.42
2022-09-01T08:45:08.619Z,22.05
2022-09-01T08:47:55.924Z,25.42
2022-09-01T08:50:25.119Z,28.23
2022-09-01T08:53:09.153Z,40.20
2022-09-01T08:55:43.040Z,47.67
2022-09-01T08:58:16.699Z,53.40
2022-09-01T09:00:54.881Z,60.28
2022-09-01T09:03:40.759Z,61.00
2022-09-01T09:06:15.738Z,69.82
2022-09-01T09:08:54.794Z,68.97
2022-09-01T09:11:55.505Z,72.50
2022-09-01T09:14:38.623Z,71.55
2022-09-01T09:17:08.669Z,73.28
2022-09-01T09:19:39.645Z,80.57
2022-09-01T09:22:11.511Z,77.63
2022-09-01T09:24:51.102Z,78.82
2022-09-01T09:27:21.586Z,81.22
2022-09-01T09:29:53.525Z,68.78
2022-09-01T09:32:23.336Z,67.88
2022-09-01T09:34:56.279Z,71.05
2022-09-01T09:37:27.970Z,70.15
2022-09-01T09:40:22.032Z,70.63
2022-09-01T09:43:06.415Z,70.13
2022-09-01T09:45:41.714Z,66.30
2022-09-01T09:48:11.804Z,72.72
2022-09-01T09:50:43.994Z,71.32
2022-09-01T09:53:19.003Z,72.97
2022-09-01T09:55:57.893Z,71.93
2022-09-01T09:58:31.052Z,77.25
2022-09-01T10:01:11.235Z,74.40
2022-09-01T10:03:43.217Z,79.72
2022-09-01T10:06:30.282Z,79.32
2022-09-01T10:08:58.778Z,77.22
2022-09-01T10:11:35.424Z,71.18
2022-09-01T10:14:08.036Z,78.47
2022-09-01T10:16:39.936Z,80.45
2022-09-01T10:19:13.043Z,85.00
2022-09-01T10:21:47.247Z,76.95
2022-09-01T10:24:26.946Z,80.13
2022-09-01T10:26:58.493Z,80.28
2022-09-01T10:29:35.547Z,72.65
2022-09-01T10:32:31.374Z,71.07
2022-09-01T10:34:59.714Z,71.00
2022-09-01T10:37:28.719Z,71.55
2022-09-01T10:40:13.763Z,70.75
2022-09-01T10:42:45.292Z,72.60
2022-09-01T10:45:30.367Z,74.88
2022-09-01T10:48:33.289Z,75.18
2022-09-01T10:51:50.553Z,73.10
2022-09-01T10:54:55.797Z,76.13
2022-09-01T10:57:45.859Z,78.82
2022-09-01T11:03:56.478Z,74.07
2022-09-01T11:07:17.233Z,70.38
2022-09-01T11:10:31.378Z,68.00
2022-09-01T11:13:34.620Z,61.88
2022-09-01T11:19:34.876Z,58.55
2022-09-01T11:22:17.619Z,63.35
2022-09-01T11:25:11.654Z,62.85
2022-09-01T11:28:00.731Z,63.10
2022-09-01T11:30:52.872Z,62.13
2022-09-01T11:33:44.392Z,64.72
2022-09-01T11:36:28.304Z,64.00
2022-09-01T11:39:07.825Z,60.45
2022-09-01T11:41:48.958Z,62.97
2022-09-01T11:44:26.308Z,60.70
2022-09-01T11:47:00.444Z,62.95
2022-09-01T11:49:32.685Z,60.92
2022-09-01T11:52:03.376Z,63.33
2022-09-01T11:54:39.532Z,57.85
2022-09-01T11:57:26.262Z,62.17
2022-09-01T11:59:54.636Z,65.88
2022-09-01T12:02:25.297Z,61.58
2022-09-01T12:04:55.354Z,64.70
2022-09-01T12:07:39.562Z,59.85
2022-09-01T12:10:18.749Z,63.63
2022-09-01T12:12:46.905Z,66.18
2022-09-01T12:15:24.324Z,59.55
2022-09-01T12:17:53.090Z,58.00
2022-09-01T12:20:28.271Z,58.28
2022-09-01T12:23:02.304Z,54.83
2022-09-01T12:25:33.052Z,55.92
2022-09-01T12:28:02.941Z,54.25
2022-09-01T12:30:35.332Z,52.67
2022-09-01T12:33:23.567Z,59.10
2022-09-01T12:35:59.302Z,57.47
2022-09-01T12:38:31.874Z,54.08
2022-09-01T12:41:00.204Z,52.40
2022-09-01T12:43:37.210Z,57.50
2022-09-01T12:46:06.921Z,57.08
2022-09-01T12:48:36.552Z,57.97
2022-09-01T12:51:24.514Z,55.85
2022-09-01T12:53:58.882Z,57.67
2022-09-01T12:56:32.723Z,60.38
2022-09-01T12:59:15.527Z,58.75
2022-09-01T13:01:45.746Z,59.42
2022-09-01T13:04:27.548Z,53.90
2022-09-01T13:06:58.410Z,69.75
2022-09-01T13:09:27.901Z,64.10
2022-09-01T13:12:09.813Z,61.72
2022-09-01T13:14:37.926Z,61.25
2022-09-01T13:17:06.528Z,56.55
2022-09-01T13:19:42.612Z,71.40
2022-09-01T13:22:10.890Z,72.25
2022-09-01T13:24:40.528Z,68.68
2022-09-01T13:27:24.301Z,69.18
2022-09-01T13:29:52.898Z,76.82
2022-09-01T13:32:24.052Z,61.70
2022-09-01T13:34:54.325Z,60.28
2022-09-01T13:37:23.809Z,60.42
2022-09-01T13:39:53.270Z,59.58
2022-09-01T13:42:21.968Z,63.58
2022-09-01T13:44:54.054Z,58.75
2022-09-01T13:47:31.832Z,59.78
2022-09-01T13:50:09.784Z,62.92
2022-09-01T13:52:39.113Z,62.78
2022-09-01T13:55:11.006Z,63.85
2022-09-01T13:57:39.552Z,61.42
2022-09-01T14:00:11.760Z,57.72
2022-09-01T14:02:41.258Z,61.28
2022-09-01T14:05:10.142Z,62.85
2022-09-01T14:07:38.265Z,64.10
2022-09-01T14:10:09.381Z,59.33
2022-09-01T14:12:37.607Z,61.50
2022-09-01T14:15:11.696Z,65.15
2022-09-01T14:17:42.268Z,64.13
2022-09-01T14:20:14.320Z,65.00
2022-09-01T14:22:42.691Z,60.72
2022-09-01T14:25:12.693Z,63.25
2022-09-01T14:27:41.159Z,61.63
2022-09-01T14:30:11.657Z,67.07
2022-09-01T14:32:40.231Z,65.60
2022-09-01T14:35:09.294Z,65.25
2022-09-01T14:37:38.716Z,60.38
2022-09-01T14:40:09.736Z,62.35
2022-09-01T14:42:49.530Z,60.22
2022-09-01T14:45:19.613Z,56.25
2022-09-01T14:47:48.306Z,50.55
2022-09-01T14:50:21.668Z,50.80
2022-09-01T14:52:53.906Z,57.78
2022-09-01T14:55:22.950Z,54.60
2022-09-01T14:57:52.963Z,54.72
2022-09-01T15:00:21.241Z,56.13
2022-09-01T15:02:49.773Z,58.15
2022-09-01T15:05:17.854Z,55.85
2022-09-01T15:07:45.960Z,58.65
2022-09-01T15:10:24.380Z,58.63
2022-09-01T15:12:55.755Z,58.20
2022-09-01T15:15:24.592Z,58.30
2022-09-01T15:17:53.099Z,58.20
2022-09-01T15:20:39.299Z,59.67
2022-09-01T15:23:08.037Z,58.55
2022-09-01T15:25:36.452Z,61.55
2022-09-01T15:28:06.845Z,58.22
2022-09-01T15:30:35.778Z,55.95
2022-09-01T15:33:06.933Z,56.67
2022-09-01T15:35:35.377Z,58.97
2022-09-01T15:38:03.570Z,58.70
2022-09-01T15:40:32.082Z,58.92
2022-09-01T15:43:00.649Z,58.95
2022-09-01T15:45:30.620Z,59.35
2022-09-01T15:47:58.672Z,62.08
2022-09-01T15:50:28.007Z,58.38
2022-09-01T15:52:58.651Z,59.10
2022-09-01T15:55:29.345Z,59.40
2022-09-01T15:57:57.778Z,60.97
2022-09-01T16:00:27.985Z,58.38
2022-09-01T16:03:01.724Z,57.13
2022-09-01T16:05:30.754Z,57.10
2022-09-01T16:07:59.155Z,56.92
2022-09-01T16:10:27.583Z,59.13
2022-09-01T16:12:55.978Z,59.00
2022-09-01T16:15:25.753Z,58.30
2022-09-01T16:18:17.510Z,57.95
2022-09-01T16:20:55.610Z,58.90
2022-09-01T16:23:26.144Z,57.75
2022-09-01T16:25:55.168Z,58.45
2022-09-01T16:28:28.688Z,58.50
2022-09-01T16:31:02.476Z,59.80
2022-09-01T16:33:33.995Z,59.83
2022-09-01T16:36:17.804Z,60.70
2022-09-01T16:38:51.387Z,60.13
2022-09-01T16:41:42.372Z,59.03
2022-09-01T16:44:24.685Z,60.05
2022-09-01T16:47:05.242Z,59.90
2022-09-01T16:49:43.486Z,62.53
2022-09-01T16:52:18.109Z,61.88
2022-09-01T16:55:00.307Z,64.95
2022-09-01T16:57:36.156Z,62.80
2022-09-01T17:00:09.411Z,65.00
2022-09-01T17:02:46.196Z,17.35
2022-09-01T17:05:25.716Z,17.40
2022-09-01T17:08:06.030Z,17.33
2022-09-01T17:10:41.906Z,17.33
2022-09-01T17:13:22.480Z,16.08
2022-09-01T17:15:55.573Z,16.67
2022-09-01T17:18:34.937Z,16.38
2022-09-01T17:21:14.304Z,16.40
2022-09-01T17:23:51.529Z,16.60
2022-09-01T17:26:24.796Z,16.30
2022-09-01T17:28:56.649Z,16.20
2022-09-01T17:31:42.630Z,17.77
2022-09-01T17:34:28.267Z,17.20
2022-09-01T17:37:06.868Z,17.27
2022-09-01T17:39:49.409Z,16.77
2022-09-01T17:42:30.218Z,17.92
2022-09-01T17:45:10.136Z,16.90
2022-09-01T17:47:47.989Z,16.33
2022-09-01T17:50:21.574Z,17.13
2022-09-01T17:53:01.170Z,17.55
2022-09-01T17:55:45.380Z,17.60
2022-09-01T17:58:22.613Z,19.15
2022-09-01T18:00:58.127Z,17.70
2022-09-01T18:03:45.477Z,17.98
2022-09-01T18:06:22.146Z,17.70
2022-09-01T18:08:54.980Z,17.15
2022-09-01T18:11:27.549Z,17.27
2022-09-01T18:14:00.776Z,17.45
2022-09-01T18:16:32.390Z,17.85
2022-09-01T18:19:05.955Z,17.48
2022-09-01T18:21:37.567Z,17.05
2022-09-01T18:24:16.397Z,17.10
2022-09-01T18:26:47.887Z,16.67
2022-09-01T18:29:16.897Z,16.85
2022-09-01T18:32:09.297Z,17.30
2022-09-01T18:34:51.462Z,17.27
2022-09-01T18:37:30.755Z,17.40
2022-09-01T18:40:09.362Z,17.50
2022-09-01T18:42:45.686Z,17.08
2022-09-01T18:45:25.453Z,17.17
2022-09-01T18:48:00.859Z,17.38
2022-09-01T18:50:31.931Z,17.20
2022-09-01T18:53:13.787Z,16.42
2022-09-01T18:55:51.468Z,16.98
2022-09-01T18:58:33.554Z,16.48
2022-09-01T19:01:05.983Z,15.88
2022-09-01T19:03:38.852Z,17.20
2022-09-01T19:06:30.686Z,15.80
2022-09-01T19:09:11.227Z,16.00
2022-09-01T19:11:55.133Z,16.27
2022-09-01T19:14:35.052Z,15.57
2022-09-01T19:17:20.059Z,16.08
2022-09-01T19:19:52.615Z,16.85
2022-09-01T19:22:24.944Z,16.95
2022-09-01T19:25:18.399Z,16.58
2022-09-01T19:27:52.199Z,16.85
2022-09-01T19:30:20.278Z,15.43
2022-09-01T19:32:49.080Z,16.35
2022-09-01T19:35:18.468Z,16.40
2022-09-01T19:37:50.710Z,16.27
2022-09-01T19:40:25.077Z,15.10
2022-09-01T19:43:03.821Z,13.82
2022-09-01T19:45:41.814Z,14.20
2022-09-01T19:48:15.706Z,14.00
2022-09-01T19:50:51.117Z,14.45
2022-09-01T19:53:29.864Z,15.45
2022-09-01T19:56:07.193Z,15.80
2022-09-01T19:58:46.957Z,14.30
2022-09-01T20:01:18.939Z,12.90
2022-09-01T20:03:51.862Z,12.85
2022-09-01T20:06:32.276Z,12.70
2022-09-01T20:09:08.511Z,13.90
2022-09-01T20:11:46.566Z,13.85
2022-09-01T20:14:34.685Z,12.38
2022-09-01T20:17:05.614Z,11.07
2022-09-01T20:19:40.577Z,11.60
2022-09-01T20:22:25.244Z,11.20
2022-09-01T20:25:08.518Z,10.88
2022-09-01T20:27:44.172Z,10.60
2022-09-01T20:30:16.954Z,10.85
2022-09-01T20:32:51.636Z,10.60
2022-09-01T20:35:24.582Z,9.20
2022-09-01T20:37:59.065Z,9.80
2022-09-01T20:40:32.596Z,10.80
2022-09-01T20:43:12.624Z,10.98
2022-09-01T20:45:42.810Z,10.60
2022-09-01T20:48:14.466Z,9.82
2022-09-01T20:50:51.949Z,10.65
2022-09-01T20:53:31.577Z,12.30
2022-09-01T20:56:08.610Z,11.57
2022-09-01T20:58:41.222Z,10.40
2022-09-01T21:01:19.294Z,9.95
2022-09-01T21:04:01.442Z,10.40
2022-09-01T21:06:49.985Z,11.73
2022-09-01T21:09:25.913Z,12.30
2022-09-01T21:12:07.251Z,11.00
2022-09-01T21:14:49.578Z,10.27
2022-09-01T21:17:27.049Z,9.50
2022-09-01T21:20:03.931Z,9.02
2022-09-01T21:22:32.107Z,9.77
2022-09-01T21:25:00.253Z,9.68
2022-09-01T21:27:31.414Z,9.02
2022-09-01T21:30:03.003Z,8.95
2022-09-01T21:32:34.766Z,9.57
2022-09-01T21:35:04.750Z,7.80
2022-09-01T21:37:33.276Z,8.00
2022-09-01T21:40:01.493Z,8.38
2022-09-01T21:42:33.920Z,8.25
2022-09-01T21:45:03.376Z,8.30
2022-09-01T21:47:33.819Z,10.23
2022-09-01T21:50:02.084Z,11.98
2022-09-01T21:52:30.210Z,10.85
2022-09-01T21:54:58.251Z,10.73
2022-09-01T21:57:26.504Z,10.40
2022-09-01T21:59:54.560Z,10.55
2022-09-01T22:02:22.820Z,10.07
2022-09-01T22:04:57.913Z,9.52
2022-09-01T22:07:26.135Z,8.90
2022-09-01T22:09:54.239Z,8.90
2022-09-01T22:12:22.254Z,8.60
2022-09-01T22:14:50.333Z,8.77
2022-09-01T22:17:20.445Z,8.27
2022-09-01T22:19:48.839Z,8.30
2022-09-01T22:22:18.401Z,7.88
2022-09-01T22:24:46.516Z,7.75
2022-09-01T22:27:14.622Z,7.40
2022-09-01T22:29:43.450Z,6.78
2022-09-01T22:32:11.521Z,6.70
2022-09-01T22:34:39.617Z,7.97
2022-09-01T22:37:12.083Z,7.50
2022-09-01T22:39:41.545Z,7.53
2022-09-01T22:42:09.701Z,6.80
2022-09-01T22:44:38.165Z,7.88
2022-09-01T22:47:07.245Z,7.25
2022-09-01T22:49:35.300Z,7.80
2022-09-01T22:52:04.147Z,7.75
2022-09-01T22:54:32.206Z,9.38
2022-09-01T22:57:03.153Z,10.50
2022-09-01T22:59:31.330Z,11.63
2022-09-01T23:02:01.906Z,10.50
2022-09-01T23:04:32.183Z,11.32
2022-09-01T23:07:00.642Z,11.23
2022-09-01T23:09:28.788Z,13.20
2022-09-01T23:11:56.946Z,12.82
2022-09-01T23:14:26.719Z,12.13
2022-09-01T23:16:54.798Z,11.30
2022-09-01T23:19:25.848Z,11.30
2022-09-01T23:21:54.465Z,11.75
2022-09-01T23:24:22.897Z,12.50
2022-09-01T23:26:51.095Z,10.30
2022-09-01T23:29:19.411Z,9.40
2022-09-01T23:31:48.886Z,8.68
2022-09-01T23:34:17.076Z,8.90
2022-09-01T23:36:45.392Z,8.93
2022-09-01T23:39:14.069Z,8.68
2022-09-01T23:41:42.257Z,8.35
2022-09-01T23:44:12.816Z,7.70
2022-09-01T23:46:43.889Z,7.70
2022-09-01T23:49:15.318Z,8.90
2022-09-01T23:51:44.162Z,9.00
2022-09-01T23:54:13.426Z,8.73
2022-09-01T23:56:42.195Z,8.05
2022-09-01T23:59:10.414Z,7.75
